Time;durP1;ratioP1;P1;durP2;ratioP2;P2;SDS_P1;SDS_P2;PMS_P1;PMS_P2;Temp;Humidity;BMP_temperature;BMP_pressure;BME280_temperature;BME280_humidity;BME280_pressure;Samples;Min_cycle;Max_cycle;Signal;HPM_P1;HPM_P2
2023/10/25 00:00:49;;;;;;;;;;;22.40;99.90;;;;;;5111263;28;19919;-69
2023/10/25 00:03:16;;;;;;;;;;;22.50;99.90;;;;;;5103588;28;19914;-70
2023/10/25 00:05:43;;;;;;;;;;;22.60;99.90;;;;;;5100480;28;19919;-67
2023/10/25 00:08:10;;;;;;;;;;;22.60;99.90;;;;;;5091940;28;19923;-74
2023/10/25 00:10:37;;;;;;;;;;;22.60;99.90;;;;;;5092709;28;19914;-71
2023/10/25 00:13:03;;;;;;;;;;;22.80;99.90;;;;;;5104938;28;20340;-68
2023/10/25 00:15:31;;;;;;;;;;;22.80;99.90;;;;;;5098850;28;19908;-69
2023/10/25 00:17:57;;;;;;;;;;;22.80;99.90;;;;;;5110822;28;19911;-71
2023/10/25 00:20:24;;;;;;;;;;;22.90;99.90;;;;;;5112197;28;19919;-72
2023/10/25 00:22:50;;;;;;;;;;;23.10;99.90;;;;;;5105964;28;19924;-73
2023/10/25 00:25:17;;;;;;;;;;;23.20;99.90;;;;;;5091087;28;19912;-73
2023/10/25 00:27:44;;;;;;;;;;;23.50;99.90;;;;;;5091839;28;19989;-69
2023/10/25 00:30:10;;;;;;;;;;;23.50;99.90;;;;;;5108785;28;19973;-68
2023/10/25 00:32:37;;;;;;;;;;;23.60;99.90;;;;;;5111756;28;19908;-71
2023/10/25 00:35:04;;;;;;;;;;;23.60;99.90;;;;;;5111320;28;19966;-71
2023/10/25 00:37:30;;;;;;;;;;;23.60;99.90;;;;;;5112161;28;19912;-74
2023/10/25 00:39:57;;;;;;;;;;;23.70;99.90;;;;;;5111515;28;19916;-74
2023/10/25 00:42:24;;;;;;;;;;;23.80;99.90;;;;;;5091336;28;19943;-73
2023/10/25 00:44:50;;;;;;;;;;;23.90;99.90;;;;;;5073534;28;19998;-72
2023/10/25 00:47:17;;;;;;;;;;;24.00;99.90;;;;;;5092066;28;19923;-75
2023/10/25 00:49:44;;;;;;;;;;;24.20;99.40;;;;;;5096847;28;19919;-72
2023/10/25 00:52:10;;;;;;;;;;;24.30;99.30;;;;;;5109093;28;19915;-70
2023/10/25 00:54:37;;;;;;;;;;;24.40;99.60;;;;;;5110030;28;19918;-68
2023/10/25 00:57:04;;;;;;;;;;;24.50;98.50;;;;;;5109629;28;19919;-71
2023/10/25 00:59:31;;;;;;;;;;;24.50;98.50;;;;;;5110813;28;19972;-68
2023/10/25 01:01:59;;;;;;;;;;;24.60;98.50;;;;;;5097336;28;19920;-69
2023/10/25 01:04:25;;;;;;;;;;;24.50;98.40;;;;;;5100736;28;19962;-70
2023/10/25 01:06:53;;;;;;;;;;;24.50;97.60;;;;;;5110049;28;19920;-70
2023/10/25 01:09:20;;;;;;;;;;;24.50;97.30;;;;;;5101127;28;19950;-68
2023/10/25 01:11:47;;;;;;;;;;;24.60;97.60;;;;;;5108579;28;19908;-70
2023/10/25 01:14:13;;;;;;;;;;;24.70;98.40;;;;;;5110250;28;19911;-68
2023/10/25 01:16:40;;;;;;;;;;;24.90;98.80;;;;;;5111301;28;19919;-68
2023/10/25 01:19:06;;;;;;;;;;;25.20;98.80;;;;;;5110286;28;19912;-69
2023/10/25 01:21:33;;;;;;;;;;;25.40;97.30;;;;;;5099968;28;19911;-71
2023/10/25 01:24:00;;;;;;;;;;;25.50;97.30;;;;;;5111454;28;20332;-71
2023/10/25 01:26:26;;;;;;;;;;;25.60;96.40;;;;;;5109851;28;19973;-70
2023/10/25 01:28:53;;;;;;;;;;;25.80;96.70;;;;;;5110800;28;19908;-69
2023/10/25 01:31:19;;;;;;;;;;;25.90;95.80;;;;;;5109267;28;19976;-68
2023/10/25 01:33:51;;;;;;;;;;;25.90;96.40;;;;;;5110209;28;19954;-67
2023/10/25 01:36:18;;;;;;;;;;;26.20;95.70;;;;;;5113345;28;19951;-69
2023/10/25 01:38:45;;;;;;;;;;;26.30;95.20;;;;;;5114371;28;19911;-68
2023/10/25 01:41:16;;;;;;;;;;;26.50;95.20;;;;;;5111237;28;19912;-73
2023/10/25 01:43:45;;;;;;;;;;;26.80;94.20;;;;;;5100265;28;20005;-71
2023/10/25 01:46:14;;;;;;;;;;;26.80;94.10;;;;;;5094120;28;20007;-75
2023/10/25 01:48:43;;;;;;;;;;;26.90;94.20;;;;;;5114572;28;19926;-73
2023/10/25 01:51:09;;;;;;;;;;;26.90;94.40;;;;;;5110222;28;19912;-72
2023/10/25 01:53:36;;;;;;;;;;;27.00;93.40;;;;;;5111000;28;19916;-74
2023/10/25 01:56:03;;;;;;;;;;;27.10;92.70;;;;;;5112790;28;19918;-66
2023/10/25 01:58:30;;;;;;;;;;;27.10;92.90;;;;;;5114092;28;19915;-72
2023/10/25 02:00:56;;;;;;;;;;;27.10;93.00;;;;;;5113356;28;19912;-71
2023/10/25 02:03:23;;;;;;;;;;;27.20;92.90;;;;;;5094797;28;19908;-73
2023/10/25 02:05:50;;;;;;;;;;;27.20;92.70;;;;;;5094379;28;19912;-71
2023/10/25 02:08:16;;;;;;;;;;;27.40;92.70;;;;;;5103300;28;19916;-71
2023/10/25 02:10:43;;;;;;;;;;;27.50;92.20;;;;;;5115174;28;19908;-70
2023/10/25 02:13:10;;;;;;;;;;;27.30;92.10;;;;;;5114565;28;19912;-74
2023/10/25 02:15:37;;;;;;;;;;;27.30;91.80;;;;;;5114835;28;20007;-69
2023/10/25 02:18:03;;;;;;;;;;;27.20;92.00;;;;;;5101777;28;19993;-70
2023/10/25 02:20:30;;;;;;;;;;;27.30;92.30;;;;;;5114449;28;19908;-68
2023/10/25 02:22:59;;;;;;;;;;;27.60;92.50;;;;;;5102732;28;19912;-74
2023/10/25 02:25:26;;;;;;;;;;;27.80;92.40;;;;;;5114392;28;19980;-72
2023/10/25 02:27:52;;;;;;;;;;;28.00;92.00;;;;;;5114450;28;19920;-73
2023/10/25 02:30:19;;;;;;;;;;;28.20;91.20;;;;;;5114285;28;19951;-70
2023/10/25 02:32:46;;;;;;;;;;;28.30;90.70;;;;;;5114065;28;19994;-68
2023/10/25 02:35:12;;;;;;;;;;;28.50;90.70;;;;;;5115021;28;20007;-70
2023/10/25 02:37:39;;;;;;;;;;;28.30;91.70;;;;;;5109487;28;20384;-71
2023/10/25 02:40:06;;;;;;;;;;;28.40;90.70;;;;;;5112620;28;19939;-72
2023/10/25 02:42:33;;;;;;;;;;;28.40;90.40;;;;;;5100354;28;20026;-71
2023/10/25 02:45:00;;;;;;;;;;;29.30;89.40;;;;;;5096796;28;19919;-67
2023/10/25 02:47:27;;;;;;;;;;;30.10;87.60;;;;;;5093008;28;19962;-70
2023/10/25 02:49:53;;;;;;;;;;;31.10;84.90;;;;;;5101434;28;20011;-69
2023/10/25 02:52:20;;;;;;;;;;;31.90;82.40;;;;;;5102634;28;19912;-74
2023/10/25 02:54:46;;;;;;;;;;;32.60;81.90;;;;;;5114408;28;19958;-74
2023/10/25 02:57:13;;;;;;;;;;;33.30;79.10;;;;;;5095824;28;19908;-71
2023/10/25 02:59:40;;;;;;;;;;;33.80;77.50;;;;;;5114269;28;19912;-74
2023/10/25 03:02:06;;;;;;;;;;;34.20;75.30;;;;;;5103233;28;19908;-73
2023/10/25 03:04:33;;;;;;;;;;;34.60;75.20;;;;;;5101545;28;20361;-73
2023/10/25 03:06:59;;;;;;;;;;;35.20;72.50;;;;;;5113638;28;19916;-70
2023/10/25 03:09:26;;;;;;;;;;;35.30;71.90;;;;;;5110471;28;20004;-71
2023/10/25 03:11:53;;;;;;;;;;;35.20;72.30;;;;;;5106771;28;19912;-71
2023/10/25 03:14:19;;;;;;;;;;;35.50;71.40;;;;;;5112704;28;19912;-70
2023/10/25 03:16:46;;;;;;;;;;;35.80;71.40;;;;;;5112167;28;20439;-68
2023/10/25 03:19:16;;;;;;;;;;;36.70;69.40;;;;;;5111700;28;20303;-68
2023/10/25 03:21:42;;;;;;;;;;;36.80;69.30;;;;;;5098924;28;20372;-70
2023/10/25 03:24:09;;;;;;;;;;;36.60;67.00;;;;;;5106406;28;19916;-66
2023/10/25 03:26:35;;;;;;;;;;;36.60;67.50;;;;;;5111934;28;19919;-70
2023/10/25 03:29:02;;;;;;;;;;;36.30;67.10;;;;;;5106345;28;19973;-70
2023/10/25 03:31:29;;;;;;;;;;;36.60;68.00;;;;;;5108166;28;19908;-71
2023/10/25 03:33:55;;;;;;;;;;;36.50;66.60;;;;;;5092553;28;19912;-68
2023/10/25 03:36:22;;;;;;;;;;;36.60;67.10;;;;;;5077944;28;19964;-68
2023/10/25 03:38:48;;;;;;;;;;;36.00;66.90;;;;;;5113120;28;19947;-72
2023/10/25 03:41:15;;;;;;;;;;;34.00;68.20;;;;;;5107746;28;20006;-70
2023/10/25 03:43:42;;;;;;;;;;;34.00;71.00;;;;;;5092959;28;19961;-71
2023/10/25 03:46:09;;;;;;;;;;;34.80;68.60;;;;;;5099613;28;19919;-74
2023/10/25 03:48:37;;;;;;;;;;;35.70;67.20;;;;;;5098041;28;20392;-73
2023/10/25 03:51:10;;;;;;;;;;;35.90;66.10;;;;;;5106054;28;19908;-69
2023/10/25 03:53:37;;;;;;;;;;;36.00;66.20;;;;;;5092684;28;19938;-74
2023/10/25 03:56:04;;;;;;;;;;;36.50;65.50;;;;;;5092558;28;19915;-74
2023/10/25 03:58:30;;;;;;;;;;;36.40;64.70;;;;;;5110333;28;19911;-67
2023/10/25 04:01:06;;;;;;;;;;;37.00;64.00;;;;;;5112189;28;19908;-70
2023/10/25 04:03:33;;;;;;;;;;;36.60;64.00;;;;;;5074864;28;19912;-69
2023/10/25 04:06:00;;;;;;;;;;;36.90;63.60;;;;;;5106192;28;19968;-68
2023/10/25 04:08:27;;;;;;;;;;;36.90;63.60;;;;;;5102119;28;19940;-69
2023/10/25 04:10:54;;;;;;;;;;;37.10;63.00;;;;;;5105390;28;20447;-66
2023/10/25 04:13:21;;;;;;;;;;;37.60;62.60;;;;;;5105832;28;19923;-68
2023/10/25 04:15:57;;;;;;;;;;;37.30;62.70;;;;;;5098229;28;19911;-67
2023/10/25 04:18:24;;;;;;;;;;;37.30;62.40;;;;;;5112324;28;20010;-68
2023/10/25 04:20:51;;;;;;;;;;;36.90;62.50;;;;;;5106233;28;19911;-69
2023/10/25 04:23:18;;;;;;;;;;;36.50;62.90;;;;;;5097915;28;19912;-66
2023/10/25 04:25:45;;;;;;;;;;;36.60;62.60;;;;;;5109061;28;19938;-68
2023/10/25 04:28:12;;;;;;;;;;;36.70;62.50;;;;;;5087694;28;20415;-68
2023/10/25 04:30:39;;;;;;;;;;;36.80;62.80;;;;;;5108141;28;19912;-66
2023/10/25 04:33:06;;;;;;;;;;;36.50;63.20;;;;;;5103411;28;19968;-67
2023/10/25 04:35:33;;;;;;;;;;;36.60;62.90;;;;;;5104580;28;19912;-69
2023/10/25 04:38:00;;;;;;;;;;;36.20;63.00;;;;;;5101730;28;19997;-67
2023/10/25 04:40:26;;;;;;;;;;;36.70;62.70;;;;;;5105006;28;19916;-69
2023/10/25 04:42:56;;;;;;;;;;;36.80;63.10;;;;;;5106617;28;19908;-72
2023/10/25 04:45:23;;;;;;;;;;;37.40;61.40;;;;;;5105134;28;19990;-71
2023/10/25 04:47:51;;;;;;;;;;;37.20;61.50;;;;;;5108794;28;19966;-75
2023/10/25 04:50:23;;;;;;;;;;;36.80;61.80;;;;;;5111871;28;19908;-68
2023/10/25 04:52:50;;;;;;;;;;;35.90;64.10;;;;;;5108249;28;19908;-66
2023/10/25 04:55:17;;;;;;;;;;;36.00;63.70;;;;;;5108867;28;19918;-71
2023/10/25 04:57:43;;;;;;;;;;;36.70;62.60;;;;;;5111626;28;19953;-67
2023/10/25 05:00:10;;;;;;;;;;;36.50;63.10;;;;;;5104562;28;20125;-72
2023/10/25 05:02:40;;;;;;;;;;;36.70;62.30;;;;;;5104986;28;20311;-71
2023/10/25 05:05:07;;;;;;;;;;;36.20;63.50;;;;;;5109244;28;19961;-74
2023/10/25 05:07:35;;;;;;;;;;;36.60;62.30;;;;;;5110609;28;19942;-75
2023/10/25 05:10:03;;;;;;;;;;;36.80;61.80;;;;;;5110142;28;20397;-73
2023/10/25 05:12:37;;;;;;;;;;;35.30;63.00;;;;;;5113214;28;20353;-73
2023/10/25 05:15:05;;;;;;;;;;;35.20;63.80;;;;;;5113738;28;19951;-75
2023/10/25 05:17:31;;;;;;;;;;;35.40;63.30;;;;;;5115321;28;19915;-74
2023/10/25 05:19:58;;;;;;;;;;;35.20;63.40;;;;;;5115716;28;19915;-72
2023/10/25 05:22:26;;;;;;;;;;;35.40;63.10;;;;;;5113478;28;19912;-73
2023/10/25 05:24:53;;;;;;;;;;;35.60;63.20;;;;;;5115807;28;19912;-70
2023/10/25 05:27:19;;;;;;;;;;;36.00;62.80;;;;;;5114786;28;19927;-74
2023/10/25 05:29:46;;;;;;;;;;;35.80;62.00;;;;;;5115161;28;19907;-70
2023/10/25 05:32:17;;;;;;;;;;;35.50;62.90;;;;;;5115604;28;19907;-72
2023/10/25 05:34:44;;;;;;;;;;;35.30;63.00;;;;;;5113724;28;19912;-71
2023/10/25 05:37:11;;;;;;;;;;;34.90;63.60;;;;;;5109679;28;19938;-72
2023/10/25 05:39:37;;;;;;;;;;;34.70;64.40;;;;;;5115748;28;19915;-73
2023/10/25 05:42:04;;;;;;;;;;;35.10;64.60;;;;;;5114353;28;20288;-72
2023/10/25 05:44:31;;;;;;;;;;;34.80;64.20;;;;;;5115379;28;19998;-69
2023/10/25 05:46:58;;;;;;;;;;;33.00;65.70;;;;;;5115216;28;19965;-72
2023/10/25 05:49:25;;;;;;;;;;;33.40;66.30;;;;;;5113194;28;20010;-69
2023/10/25 05:51:51;;;;;;;;;;;32.40;66.90;;;;;;5112514;28;19965;-70
2023/10/25 05:54:18;;;;;;;;;;;32.50;67.60;;;;;;5105749;28;19912;-72
2023/10/25 05:56:45;;;;;;;;;;;33.60;66.20;;;;;;5110104;27;19911;-75
2023/10/25 05:59:12;;;;;;;;;;;34.50;64.60;;;;;;5118208;27;19953;-74
2023/10/25 06:01:53;;;;;;;;;;;35.00;64.00;;;;;;5101683;27;19916;-74
2023/10/25 06:04:22;;;;;;;;;;;34.90;64.00;;;;;;5104167;27;20304;-72
2023/10/25 06:06:48;;;;;;;;;;;34.70;64.00;;;;;;5122106;27;19984;-71
2023/10/25 06:09:15;;;;;;;;;;;34.10;64.60;;;;;;5116873;27;19912;-72
2023/10/25 06:11:42;;;;;;;;;;;33.60;64.90;;;;;;5114202;27;20322;-73
2023/10/25 06:14:11;;;;;;;;;;;33.40;65.70;;;;;;5108390;28;19912;-74
2023/10/25 06:16:38;;;;;;;;;;;33.10;66.00;;;;;;5106727;27;19916;-73
2023/10/25 06:19:06;;;;;;;;;;;32.80;66.90;;;;;;5096732;28;19908;-70
2023/10/25 06:21:33;;;;;;;;;;;32.60;67.10;;;;;;5097946;28;20249;-71
2023/10/25 06:23:59;;;;;;;;;;;32.30;67.40;;;;;;5108479;28;20022;-70
2023/10/25 06:26:27;;;;;;;;;;;31.90;68.00;;;;;;5112631;28;19962;-73
2023/10/25 06:28:54;;;;;;;;;;;31.30;68.80;;;;;;5107261;28;19912;-69
2023/10/25 06:31:20;;;;;;;;;;;30.50;70.30;;;;;;5106842;28;19916;-68
2023/10/25 06:33:47;;;;;;;;;;;29.40;72.10;;;;;;5094858;28;20415;-72
2023/10/25 06:36:14;;;;;;;;;;;28.70;73.90;;;;;;5112642;28;20361;-73
2023/10/25 06:38:41;;;;;;;;;;;27.60;75.80;;;;;;5112707;28;19911;-74
2023/10/25 06:41:14;;;;;;;;;;;26.80;77.70;;;;;;5114608;28;20318;-75
2023/10/25 06:43:44;;;;;;;;;;;26.50;78.50;;;;;;5093543;28;19912;-76
2023/10/25 06:46:11;;;;;;;;;;;26.10;80.00;;;;;;5094473;28;19927;-68
2023/10/25 06:48:39;;;;;;;;;;;25.80;80.30;;;;;;5110235;28;19920;-75
2023/10/25 06:51:06;;;;;;;;;;;25.70;81.10;;;;;;5093801;28;19983;-76
2023/10/25 06:53:33;;;;;;;;;;;25.60;81.50;;;;;;5106717;27;20010;-74
2023/10/25 06:56:00;;;;;;;;;;;25.40;83.20;;;;;;5101600;28;20352;-71
2023/10/25 06:58:27;;;;;;;;;;;25.10;84.20;;;;;;5112501;27;19911;-75
2023/10/25 07:00:55;;;;;;;;;;;24.90;84.40;;;;;;5116016;28;19916;-75
2023/10/25 07:03:27;;;;;;;;;;;24.50;86.70;;;;;;5132064;27;19912;-73
2023/10/25 07:05:55;;;;;;;;;;;24.50;88.00;;;;;;5133760;27;19908;-73
2023/10/25 07:08:22;;;;;;;;;;;24.50;86.90;;;;;;5110299;27;19912;-75
2023/10/25 07:10:49;;;;;;;;;;;24.30;87.00;;;;;;5093353;28;19916;-74
2023/10/25 07:13:15;;;;;;;;;;;24.20;87.70;;;;;;5110103;28;20275;-72
2023/10/25 07:15:43;;;;;;;;;;;24.00;88.30;;;;;;5112029;28;20421;-69
2023/10/25 07:18:10;;;;;;;;;;;23.80;89.60;;;;;;5110653;28;20546;-68
2023/10/25 07:20:36;;;;;;;;;;;23.50;90.40;;;;;;5093948;28;19912;-74
2023/10/25 07:23:04;;;;;;;;;;;23.30;91.10;;;;;;5093495;28;20393;-75
2023/10/25 07:25:31;;;;;;;;;;;23.10;91.70;;;;;;5106494;28;19911;-71
2023/10/25 07:27:59;;;;;;;;;;;23.10;92.20;;;;;;5113686;28;20357;-75
2023/10/25 07:30:25;;;;;;;;;;;22.90;92.60;;;;;;5112782;28;19973;-72
2023/10/25 07:32:52;;;;;;;;;;;22.90;93.00;;;;;;5104169;27;19912;-71
2023/10/25 07:35:19;;;;;;;;;;;22.60;93.90;;;;;;5111669;28;19980;-72
2023/10/25 07:37:45;;;;;;;;;;;22.60;94.50;;;;;;5112970;28;20010;-72
2023/10/25 07:40:12;;;;;;;;;;;22.40;94.50;;;;;;5105442;28;20395;-74
2023/10/25 07:42:39;;;;;;;;;;;22.40;94.90;;;;;;5097848;28;19970;-68
2023/10/25 07:45:05;;;;;;;;;;;22.30;95.10;;;;;;5107140;28;19911;-71
2023/10/25 07:47:32;;;;;;;;;;;22.30;95.20;;;;;;5110067;28;20014;-66
2023/10/25 07:49:59;;;;;;;;;;;22.30;95.40;;;;;;5092534;28;19920;-73
2023/10/25 07:52:27;;;;;;;;;;;22.30;95.70;;;;;;5096984;28;19912;-67
2023/10/25 07:54:54;;;;;;;;;;;22.30;96.30;;;;;;5090526;28;19964;-70
2023/10/25 07:57:20;;;;;;;;;;;22.30;96.10;;;;;;5102863;28;20023;-69
2023/10/25 07:59:47;;;;;;;;;;;22.10;96.50;;;;;;5111200;28;19912;-74
2023/10/25 08:02:14;;;;;;;;;;;22.00;96.50;;;;;;5103158;28;19912;-73
2023/10/25 08:04:41;;;;;;;;;;;21.90;96.80;;;;;;5089976;28;19920;-72
2023/10/25 08:07:08;;;;;;;;;;;21.80;97.20;;;;;;5100185;28;19923;-74
2023/10/25 08:09:35;;;;;;;;;;;21.80;97.50;;;;;;5111861;28;19908;-72
2023/10/25 08:12:02;;;;;;;;;;;21.70;97.90;;;;;;5106045;28;19919;-74
2023/10/25 08:14:28;;;;;;;;;;;21.70;98.30;;;;;;5092336;28;19908;-73
2023/10/25 08:16:55;;;;;;;;;;;21.70;98.60;;;;;;5099497;28;20272;-73
2023/10/25 08:19:22;;;;;;;;;;;21.60;98.90;;;;;;5105569;28;19919;-74
2023/10/25 08:21:48;;;;;;;;;;;21.50;98.90;;;;;;5095646;28;19923;-74
2023/10/25 08:24:15;;;;;;;;;;;21.50;99.00;;;;;;5096525;28;19907;-68
2023/10/25 08:26:41;;;;;;;;;;;21.40;99.30;;;;;;5112044;28;19917;-74
2023/10/25 08:29:08;;;;;;;;;;;21.30;99.70;;;;;;5108676;28;19912;-75
2023/10/25 08:31:35;;;;;;;;;;;21.10;99.90;;;;;;5094040;28;19919;-69
2023/10/25 08:34:02;;;;;;;;;;;21.20;99.90;;;;;;5091854;28;19977;-74
2023/10/25 08:36:30;;;;;;;;;;;21.10;99.90;;;;;;5094727;28;19912;-73
2023/10/25 08:38:57;;;;;;;;;;;21.10;99.90;;;;;;5112278;28;19955;-68
2023/10/25 08:41:25;;;;;;;;;;;21.00;99.90;;;;;;5081870;28;19966;-71
2023/10/25 08:43:54;;;;;;;;;;;21.00;99.90;;;;;;5092503;28;19908;-73
2023/10/25 08:46:22;;;;;;;;;;;21.00;99.90;;;;;;5095697;27;19920;-75
2023/10/25 08:48:53;;;;;;;;;;;21.00;99.90;;;;;;5116090;28;19920;-70
2023/10/25 08:51:20;;;;;;;;;;;20.90;99.90;;;;;;5111689;28;20380;-69
2023/10/25 08:53:47;;;;;;;;;;;21.00;99.90;;;;;;5096803;28;19916;-74
2023/10/25 08:56:14;;;;;;;;;;;20.90;99.90;;;;;;5095424;28;20497;-71
2023/10/25 08:58:40;;;;;;;;;;;20.90;99.90;;;;;;5103609;27;19922;-72
2023/10/25 09:01:07;;;;;;;;;;;20.90;99.90;;;;;;5095300;28;20040;-72
2023/10/25 09:03:34;;;;;;;;;;;20.80;99.90;;;;;;5096199;27;19919;-70
2023/10/25 09:06:04;;;;;;;;;;;20.90;99.90;;;;;;5095298;28;20017;-72
2023/10/25 09:08:32;;;;;;;;;;;20.80;99.90;;;;;;5113413;28;20119;-74
2023/10/25 09:11:06;;;;;;;;;;;20.80;99.90;;;;;;5106983;28;19965;-73
2023/10/25 09:13:35;;;;;;;;;;;20.60;99.90;;;;;;5095867;28;19997;-71
2023/10/25 09:16:08;;;;;;;;;;;20.70;99.90;;;;;;5095049;28;19988;-73
2023/10/25 09:18:36;;;;;;;;;;;20.70;99.90;;;;;;5113576;28;19912;-70
2023/10/25 09:21:03;;;;;;;;;;;20.70;99.90;;;;;;5108254;28;19919;-74
2023/10/25 09:23:30;;;;;;;;;;;20.50;99.90;;;;;;5113143;27;19912;-74
2023/10/25 09:26:03;;;;;;;;;;;20.50;99.90;;;;;;5115115;28;19935;-70
2023/10/25 09:28:32;;;;;;;;;;;20.50;99.90;;;;;;5113110;28;20078;-73
2023/10/25 09:31:00;;;;;;;;;;;20.50;99.90;;;;;;5115211;28;19970;-72
2023/10/25 09:33:30;;;;;;;;;;;20.60;99.90;;;;;;5107584;28;19951;-73
2023/10/25 09:35:57;;;;;;;;;;;20.50;99.90;;;;;;5111690;28;19919;-71
2023/10/25 09:38:24;;;;;;;;;;;20.40;99.90;;;;;;5114015;28;19912;-72
2023/10/25 09:40:51;;;;;;;;;;;20.40;99.90;;;;;;5111327;28;19926;-74
2023/10/25 09:43:24;;;;;;;;;;;20.40;99.90;;;;;;5112618;28;19912;-71
2023/10/25 09:45:54;;;;;;;;;;;20.30;99.90;;;;;;5110219;28;20330;-74
2023/10/25 09:48:21;;;;;;;;;;;20.20;99.90;;;;;;5114901;28;19920;-71
2023/10/25 09:50:51;;;;;;;;;;;20.10;99.90;;;;;;5111954;28;19994;-70
2023/10/25 09:53:26;;;;;;;;;;;20.10;99.90;;;;;;5117940;27;20323;-73
2023/10/25 09:55:55;;;;;;;;;;;20.00;99.90;;;;;;5093884;28;19915;-67
2023/10/25 09:58:25;;;;;;;;;;;19.90;99.90;;;;;;5114941;28;20380;-75
2023/10/25 10:00:52;;;;;;;;;;;19.90;99.90;;;;;;5111958;28;19912;-72
2023/10/25 10:03:30;;;;;;;;;;;20.00;99.90;;;;;;5114101;28;20008;-69
2023/10/25 10:06:16;;;;;;;;;;;20.10;99.90;;;;;;5113047;27;20382;-73
2023/10/25 10:08:43;;;;;;;;;;;20.10;99.90;;;;;;5068836;28;19919;-73
2023/10/25 10:11:12;;;;;;;;;;;20.10;99.90;;;;;;5113796;27;20368;-73
2023/10/25 10:13:39;;;;;;;;;;;20.10;99.90;;;;;;5114231;28;19914;-74
2023/10/25 10:16:09;;;;;;;;;;;20.10;99.90;;;;;;5114232;27;20003;-74
2023/10/25 10:18:42;;;;;;;;;;;20.00;99.90;;;;;;5114730;28;19908;-72
2023/10/25 10:21:10;;;;;;;;;;;20.10;99.90;;;;;;5109233;28;19987;-74
2023/10/25 10:23:38;;;;;;;;;;;20.00;99.90;;;;;;5114514;28;20030;-73
2023/10/25 10:26:06;;;;;;;;;;;20.00;99.90;;;;;;5115020;28;20296;-72
2023/10/25 10:28:41;;;;;;;;;;;20.00;99.90;;;;;;5115139;28;19930;-74
2023/10/25 10:31:12;;;;;;;;;;;20.10;99.90;;;;;;5112749;28;19912;-74
2023/10/25 10:33:48;;;;;;;;;;;20.00;99.90;;;;;;5094512;28;19912;-74
2023/10/25 10:36:31;;;;;;;;;;;20.00;99.90;;;;;;5076509;28;19908;-73
2023/10/25 10:39:13;;;;;;;;;;;19.90;99.90;;;;;;5094498;28;20319;-69
2023/10/25 10:41:41;;;;;;;;;;;19.90;99.90;;;;;;5094242;28;19912;-72
2023/10/25 10:44:08;;;;;;;;;;;19.90;99.90;;;;;;5094233;28;19919;-74
2023/10/25 10:46:38;;;;;;;;;;;19.90;99.90;;;;;;5095117;28;19959;-73
2023/10/25 10:49:08;;;;;;;;;;;19.90;99.90;;;;;;5114275;28;19919;-71
2023/10/25 10:51:36;;;;;;;;;;;19.90;99.90;;;;;;5114674;28;19912;-72
2023/10/25 10:54:02;;;;;;;;;;;19.70;99.90;;;;;;5114736;28;20356;-73
2023/10/25 10:56:29;;;;;;;;;;;19.70;99.90;;;;;;5115004;28;19907;-73
2023/10/25 10:58:56;;;;;;;;;;;19.70;99.90;;;;;;5114627;28;19911;-67
2023/10/25 11:01:23;;;;;;;;;;;19.60;99.90;;;;;;5114279;28;20371;-70
2023/10/25 11:03:50;;;;;;;;;;;19.50;99.90;;;;;;5114512;28;19915;-74
2023/10/25 11:06:16;;;;;;;;;;;19.50;99.90;;;;;;5114553;28;19960;-72
2023/10/25 11:08:43;;;;;;;;;;;19.50;99.90;;;;;;5113602;28;19908;-72
2023/10/25 11:11:10;;;;;;;;;;;19.40;99.90;;;;;;5113786;28;19911;-70
2023/10/25 11:13:36;;;;;;;;;;;19.30;99.90;;;;;;5113323;28;19912;-69
2023/10/25 11:16:06;;;;;;;;;;;19.30;99.90;;;;;;5114307;28;20056;-72
2023/10/25 11:18:33;;;;;;;;;;;19.20;99.90;;;;;;5114162;28;19907;-70
2023/10/25 11:21:02;;;;;;;;;;;19.20;99.90;;;;;;5114335;28;19908;-71
2023/10/25 11:23:29;;;;;;;;;;;19.20;99.90;;;;;;5114132;28;19908;-70
2023/10/25 11:25:56;;;;;;;;;;;19.20;99.90;;;;;;5113778;28;19907;-71
2023/10/25 11:28:24;;;;;;;;;;;19.30;99.90;;;;;;5113507;28;20387;-73
2023/10/25 11:30:51;;;;;;;;;;;19.20;99.90;;;;;;5113984;28;20408;-69
2023/10/25 11:33:17;;;;;;;;;;;19.20;99.90;;;;;;5114068;28;20280;-69
2023/10/25 11:35:44;;;;;;;;;;;19.20;99.90;;;;;;5113991;28;20340;-70
2023/10/25 11:38:12;;;;;;;;;;;19.20;99.90;;;;;;5114049;28;20268;-74
2023/10/25 11:40:48;;;;;;;;;;;19.10;99.90;;;;;;5113353;28;19965;-72
2023/10/25 11:43:15;;;;;;;;;;;19.20;99.90;;;;;;5113500;28;20934;-74
2023/10/25 11:45:41;;;;;;;;;;;19.20;99.90;;;;;;5113504;28;19911;-74
2023/10/25 11:48:09;;;;;;;;;;;19.20;99.90;;;;;;5113363;28;20353;-67
2023/10/25 11:50:36;;;;;;;;;;;19.10;99.90;;;;;;5093843;28;19919;-70
2023/10/25 11:53:03;;;;;;;;;;;19.10;99.90;;;;;;5102298;28;19912;-72
2023/10/25 11:55:30;;;;;;;;;;;19.10;99.90;;;;;;5113713;28;20401;-73
2023/10/25 11:57:57;;;;;;;;;;;19.10;99.90;;;;;;5113465;28;19915;-73
2023/10/25 12:00:24;;;;;;;;;;;19.10;99.90;;;;;;5113687;28;19914;-71
2023/10/25 12:02:51;;;;;;;;;;;19.00;99.90;;;;;;5113329;28;19999;-72
2023/10/25 12:05:18;;;;;;;;;;;19.00;99.90;;;;;;5113345;28;20378;-73
2023/10/25 12:07:48;;;;;;;;;;;18.90;99.90;;;;;;5112605;28;20349;-70
2023/10/25 12:10:16;;;;;;;;;;;18.70;99.90;;;;;;5112964;28;19908;-71
2023/10/25 12:12:43;;;;;;;;;;;18.70;99.90;;;;;;5113194;28;19908;-73
2023/10/25 12:15:10;;;;;;;;;;;18.70;99.90;;;;;;5112885;28;19915;-68
2023/10/25 12:17:37;;;;;;;;;;;18.60;99.90;;;;;;5113148;28;19915;-69
2023/10/25 12:20:04;;;;;;;;;;;18.50;99.90;;;;;;5110375;28;19970;-68
2023/10/25 12:22:30;;;;;;;;;;;18.50;99.90;;;;;;5113032;28;19931;-68
2023/10/25 12:24:57;;;;;;;;;;;18.60;99.90;;;;;;5113230;28;19919;-67
2023/10/25 12:27:23;;;;;;;;;;;18.50;99.90;;;;;;5113119;28;19916;-67
2023/10/25 12:29:50;;;;;;;;;;;18.60;99.90;;;;;;5112979;28;20386;-70
2023/10/25 12:32:21;;;;;;;;;;;18.60;99.90;;;;;;5112285;28;19912;-73
2023/10/25 12:34:48;;;;;;;;;;;18.70;99.90;;;;;;5113216;28;19954;-68
2023/10/25 12:37:15;;;;;;;;;;;18.70;99.90;;;;;;5113001;28;19915;-72
2023/10/25 12:39:41;;;;;;;;;;;18.80;99.90;;;;;;5110838;28;19943;-72
2023/10/25 12:42:08;;;;;;;;;;;18.70;99.90;;;;;;5112380;28;19969;-71
2023/10/25 12:44:35;;;;;;;;;;;18.60;99.90;;;;;;5113337;28;19908;-68
2023/10/25 12:47:03;;;;;;;;;;;18.60;99.90;;;;;;5112623;28;20284;-72
2023/10/25 12:49:30;;;;;;;;;;;18.60;99.90;;;;;;5112758;28;19978;-74
2023/10/25 12:51:56;;;;;;;;;;;18.50;99.90;;;;;;5113137;28;19951;-75
2023/10/25 12:54:23;;;;;;;;;;;18.40;99.90;;;;;;5112701;28;19919;-72
2023/10/25 12:56:50;;;;;;;;;;;18.30;99.90;;;;;;5113217;28;20272;-73
2023/10/25 12:59:17;;;;;;;;;;;18.20;99.90;;;;;;5104755;28;20444;-72
2023/10/25 13:01:43;;;;;;;;;;;18.10;99.90;;;;;;5092350;28;19920;-74
2023/10/25 13:04:10;;;;;;;;;;;18.00;99.90;;;;;;5092294;28;20277;-74
2023/10/25 13:06:36;;;;;;;;;;;17.90;99.90;;;;;;5092403;28;19923;-73
2023/10/25 13:09:03;;;;;;;;;;;17.80;99.90;;;;;;5092313;28;19912;-74
2023/10/25 13:11:30;;;;;;;;;;;17.80;99.90;;;;;;5092231;28;19919;-74
2023/10/25 13:13:56;;;;;;;;;;;17.60;99.90;;;;;;5091963;28;19934;-74
2023/10/25 13:16:23;;;;;;;;;;;17.50;99.90;;;;;;5093415;28;19914;-72
2023/10/25 13:18:50;;;;;;;;;;;17.50;99.90;;;;;;5094052;28;19915;-75
2023/10/25 13:21:16;;;;;;;;;;;17.50;99.90;;;;;;5094089;28;19914;-76
2023/10/25 13:23:43;;;;;;;;;;;17.50;99.90;;;;;;5093002;28;19908;-74
2023/10/25 13:26:10;;;;;;;;;;;17.60;99.90;;;;;;5093681;28;20311;-74
2023/10/25 13:28:37;;;;;;;;;;;17.60;99.90;;;;;;5092140;28;19919;-75
2023/10/25 13:31:03;;;;;;;;;;;17.70;99.90;;;;;;5093035;28;19940;-71
2023/10/25 13:33:30;;;;;;;;;;;17.70;99.90;;;;;;5096062;28;19938;-76
2023/10/25 13:35:58;;;;;;;;;;;17.70;99.90;;;;;;5095389;28;20415;-73
2023/10/25 13:38:24;;;;;;;;;;;17.70;99.90;;;;;;5097065;28;19943;-73
2023/10/25 13:40:51;;;;;;;;;;;17.80;99.90;;;;;;5106803;28;20494;-73
2023/10/25 13:43:17;;;;;;;;;;;17.80;99.90;;;;;;5095435;28;19919;-73
2023/10/25 13:45:45;;;;;;;;;;;17.80;99.90;;;;;;5095573;28;19908;-74
2023/10/25 13:48:12;;;;;;;;;;;17.80;99.90;;;;;;5098158;28;20449;-75
2023/10/25 13:50:38;;;;;;;;;;;17.80;99.90;;;;;;5104730;28;19919;-76
2023/10/25 13:53:05;;;;;;;;;;;17.90;99.90;;;;;;5115319;28;19915;-74
2023/10/25 13:55:36;;;;;;;;;;;17.90;99.90;;;;;;5115504;28;19919;-69
2023/10/25 13:58:02;;;;;;;;;;;17.80;99.90;;;;;;5115553;28;19960;-73
2023/10/25 14:00:29;;;;;;;;;;;17.80;99.90;;;;;;5081745;28;20270;-75
2023/10/25 14:02:55;;;;;;;;;;;17.80;99.90;;;;;;5095047;28;20404;-74
2023/10/25 14:05:22;;;;;;;;;;;17.80;99.90;;;;;;5095081;28;19916;-74
2023/10/25 14:07:49;;;;;;;;;;;17.80;99.90;;;;;;5094835;28;20396;-73
2023/10/25 14:10:15;;;;;;;;;;;17.70;99.90;;;;;;5111334;28;20003;-71
2023/10/25 14:12:42;;;;;;;;;;;17.50;99.90;;;;;;5112435;28;19916;-72
2023/10/25 14:15:09;;;;;;;;;;;17.50;99.90;;;;;;5115090;28;19911;-72
2023/10/25 14:17:35;;;;;;;;;;;17.50;99.90;;;;;;5114257;28;19914;-70